Time;durP1;ratioP1;P1;durP2;ratioP2;P2;SDS_P1;SDS_P2;PMS_P1;PMS_P2;Temp;Humidity;BMP_temperature;BMP_pressure;BME280_temperature;BME280_humidity;BME280_pressure;Samples;Min_cycle;Max_cycle;Signal;HPM_P1;HPM_P2
2024/01/11 00:01:39;;;;;;;11.80;10.70;;;1.30;99.90;;;;;;5041107;28;20266;-74
2024/01/11 00:04:07;;;;;;;11.43;10.32;;;1.30;99.90;;;;;;5035437;28;20227;-74
2024/01/11 00:06:40;;;;;;;11.30;10.30;;;1.30;99.90;;;;;;5034722;28;20229;-74
2024/01/11 00:09:07;;;;;;;11.32;10.23;;;1.30;99.90;;;;;;5038047;28;20203;-75
2024/01/11 00:11:34;;;;;;;11.52;10.32;;;1.30;99.90;;;;;;5039867;28;20306;-75
2024/01/11 00:14:01;;;;;;;10.10;9.10;;;1.30;99.90;;;;;;5038023;28;20219;-74
2024/01/11 00:16:28;;;;;;;10.27;9.38;;;1.30;99.90;;;;;;5036019;28;21114;-74
2024/01/11 00:18:55;;;;;;;10.18;9.18;;;1.20;99.90;;;;;;5037328;28;20202;-74
2024/01/11 00:21:24;;;;;;;9.27;8.48;;;1.20;99.90;;;;;;5039833;28;20227;-73
2024/01/11 00:23:51;;;;;;;8.32;7.63;;;1.20;99.90;;;;;;5038707;28;20250;-74
2024/01/11 00:26:18;;;;;;;9.35;8.55;;;1.20;99.90;;;;;;5036956;28;20222;-75
2024/01/11 00:28:45;;;;;;;9.10;8.30;;;1.20;99.90;;;;;;5039236;28;20214;-76
2024/01/11 00:31:13;;;;;;;9.57;8.73;;;1.20;99.90;;;;;;5038741;28;20254;-77
2024/01/11 00:33:41;;;;;;;9.07;8.27;;;1.20;99.90;;;;;;5040260;28;20219;-75
2024/01/11 00:36:08;;;;;;;10.05;9.15;;;1.20;99.90;;;;;;5039697;28;20211;-75
2024/01/11 00:38:36;;;;;;;8.95;8.15;;;1.20;99.90;;;;;;5041784;28;20203;-74
2024/01/11 00:41:03;;;;;;;9.52;8.73;;;1.20;99.90;;;;;;5041908;28;21010;-74
2024/01/11 00:43:30;;;;;;;9.10;8.30;;;1.10;99.90;;;;;;5042534;28;20249;-74
2024/01/11 00:45:57;;;;;;;9.88;8.98;;;1.10;99.90;;;;;;5041912;28;20215;-74
2024/01/11 00:48:25;;;;;;;9.15;8.25;;;1.00;99.90;;;;;;5043160;28;20593;-74
2024/01/11 00:50:52;;;;;;;9.85;8.95;;;1.00;99.90;;;;;;5038954;28;20215;-74
2024/01/11 00:53:19;;;;;;;9.68;8.77;;;1.00;99.90;;;;;;5041445;28;20648;-74
2024/01/11 00:55:48;;;;;;;10.25;9.25;;;1.10;99.90;;;;;;5046107;28;20229;-73
2024/01/11 00:58:15;;;;;;;9.57;8.70;;;1.10;99.90;;;;;;5056322;28;20229;-73
2024/01/11 01:00:42;;;;;;;9.15;8.35;;;1.10;99.90;;;;;;5056996;28;20218;-74
2024/01/11 01:03:09;;;;;;;8.88;8.07;;;1.10;99.90;;;;;;5058251;28;20237;-74
2024/01/11 01:05:36;;;;;;;9.10;8.25;;;1.10;99.90;;;;;;5056909;28;20241;-74
2024/01/11 01:08:03;;;;;;;9.40;8.48;;;1.10;99.90;;;;;;5060477;28;20214;-73
2024/01/11 01:10:30;;;;;;;9.43;8.63;;;1.10;99.90;;;;;;5061204;28;20241;-74
2024/01/11 01:12:59;;;;;;;8.90;8.05;;;1.10;99.90;;;;;;5058833;28;20195;-74
2024/01/11 01:15:26;;;;;;;8.57;7.88;;;1.10;99.90;;;;;;5059016;28;20214;-74
2024/01/11 01:17:53;;;;;;;9.48;8.68;;;1.10;99.90;;;;;;5058892;28;20203;-74
2024/01/11 01:20:20;;;;;;;8.45;7.65;;;1.10;99.90;;;;;;5057916;28;20229;-75
2024/01/11 01:22:47;;;;;;;8.80;8.10;;;1.10;99.90;;;;;;5061591;28;20209;-75
2024/01/11 01:25:15;;;;;;;9.02;8.15;;;1.00;99.90;;;;;;5060659;28;20715;-75
2024/01/11 01:27:42;;;;;;;8.70;7.90;;;1.00;99.90;;;;;;5058331;28;20252;-75
2024/01/11 01:30:10;;;;;;;8.88;8.07;;;1.00;99.90;;;;;;5061677;28;20704;-76
2024/01/11 01:32:37;;;;;;;9.00;8.20;;;1.00;99.90;;;;;;5059875;28;20209;-74
2024/01/11 01:35:05;;;;;;;8.82;8.07;;;1.00;99.90;;;;;;5060984;28;20234;-74
2024/01/11 01:37:32;;;;;;;9.18;8.38;;;0.90;99.90;;;;;;5059737;28;20191;-75
2024/01/11 01:39:59;;;;;;;7.97;7.28;;;0.90;99.90;;;;;;5058480;28;20574;-75
2024/01/11 01:42:26;;;;;;;8.13;7.43;;;0.90;99.90;;;;;;5058703;28;20700;-74
2024/01/11 01:44:53;;;;;;;8.05;7.35;;;0.90;99.90;;;;;;5058587;28;20225;-74
2024/01/11 01:47:23;;;;;;;7.80;7.10;;;0.90;99.90;;;;;;5055564;28;20225;-74
2024/01/11 01:49:51;;;;;;;8.80;8.00;;;0.90;99.90;;;;;;5058451;28;20209;-74
2024/01/11 01:52:19;;;;;;;8.38;7.60;;;0.90;99.90;;;;;;5058142;28;20683;-76
2024/01/11 01:54:46;;;;;;;8.10;7.40;;;0.90;99.90;;;;;;5065901;28;20225;-74
2024/01/11 01:57:15;;;;;;;8.63;7.85;;;0.90;99.90;;;;;;5060788;28;20194;-75
2024/01/11 01:59:43;;;;;;;7.88;7.18;;;0.90;99.90;;;;;;5057691;28;20203;-74
2024/01/11 02:02:11;;;;;;;7.88;7.22;;;0.90;99.90;;;;;;5037291;28;20269;-74
2024/01/11 02:04:40;;;;;;;7.63;6.95;;;0.90;99.90;;;;;;5039503;28;20215;-74
2024/01/11 02:07:08;;;;;;;8.27;7.57;;;0.90;99.90;;;;;;5035507;28;20242;-73
2024/01/11 02:09:36;;;;;;;7.80;7.18;;;0.80;99.90;;;;;;5036881;28;20214;-74
2024/01/11 02:12:04;;;;;;;8.43;7.72;;;0.90;99.90;;;;;;5038930;28;20231;-74
2024/01/11 02:14:32;;;;;;;7.53;6.93;;;0.90;99.90;;;;;;5037133;28;20251;-74
2024/01/11 02:16:59;;;;;;;7.57;6.88;;;0.80;99.90;;;;;;5039024;28;20226;-74
2024/01/11 02:19:26;;;;;;;8.02;7.40;;;0.90;99.90;;;;;;5038055;28;20642;-74
2024/01/11 02:21:56;;;;;;;8.25;7.53;;;0.90;99.90;;;;;;5040208;28;20776;-74
2024/01/11 02:24:24;;;;;;;7.25;6.70;;;0.90;99.90;;;;;;5037891;28;20218;-75
2024/01/11 02:26:59;;;;;;;6.95;6.40;;;0.80;99.90;;;;;;5038272;28;20550;-74
2024/01/11 02:29:27;;;;;;;7.50;6.90;;;0.80;99.90;;;;;;5041158;28;20504;-75
2024/01/11 02:31:55;;;;;;;7.20;6.60;;;0.80;99.90;;;;;;5040048;28;20226;-74
2024/01/11 02:34:22;;;;;;;8.10;7.50;;;0.80;99.90;;;;;;5038179;28;20451;-75
2024/01/11 02:36:49;;;;;;;7.35;6.75;;;0.80;99.90;;;;;;5040421;28;20222;-74
2024/01/11 02:39:19;;;;;;;7.20;6.63;;;0.70;99.90;;;;;;5042098;28;20202;-73
2024/01/11 02:41:50;;;;;;;7.28;6.68;;;0.60;99.90;;;;;;5040578;28;20224;-74
2024/01/11 02:44:18;;;;;;;7.10;6.53;;;0.60;99.90;;;;;;5040841;28;20288;-74
2024/01/11 02:46:45;;;;;;;7.13;6.55;;;0.60;99.90;;;;;;5038314;28;20223;-74
2024/01/11 02:49:12;;;;;;;7.50;6.90;;;0.60;99.90;;;;;;5036083;28;20210;-74
2024/01/11 02:51:39;;;;;;;7.05;6.45;;;0.70;99.90;;;;;;5040096;28;20237;-75
2024/01/11 02:54:06;;;;;;;6.68;6.10;;;0.70;99.90;;;;;;5039529;28;20234;-75
2024/01/11 02:56:33;;;;;;;7.05;6.47;;;0.70;99.90;;;;;;5054409;28;20218;-75
2024/01/11 02:59:02;;;;;;;6.90;6.35;;;0.70;99.90;;;;;;5063544;28;20225;-75
2024/01/11 03:01:29;;;;;;;7.18;6.57;;;0.70;99.90;;;;;;5056920;28;20221;-75
2024/01/11 03:03:57;;;;;;;6.90;6.40;;;0.70;99.90;;;;;;5059970;28;20222;-74
2024/01/11 03:06:24;;;;;;;6.90;6.40;;;0.70;99.90;;;;;;5059671;28;20224;-74
2024/01/11 03:08:51;;;;;;;7.28;6.68;;;0.70;99.90;;;;;;5063195;28;20202;-74
2024/01/11 03:11:18;;;;;;;6.63;6.05;;;0.70;99.90;;;;;;5059651;28;20217;-74
2024/01/11 03:13:45;;;;;;;7.32;6.72;;;0.70;99.90;;;;;;5062327;28;20229;-74
2024/01/11 03:16:14;;;;;;;6.57;6.07;;;0.60;99.90;;;;;;5059887;28;20249;-73
2024/01/11 03:18:41;;;;;;;7.32;6.72;;;0.70;99.90;;;;;;5059038;28;20232;-74
2024/01/11 03:21:08;;;;;;;6.80;6.32;;;0.60;99.90;;;;;;5061010;28;20229;-73
2024/01/11 03:23:35;;;;;;;6.90;6.30;;;0.60;99.90;;;;;;5060032;28;20244;-76
2024/01/11 03:26:02;;;;;;;7.53;6.93;;;0.60;99.90;;;;;;5061687;28;20223;-74
2024/01/11 03:28:29;;;;;;;7.15;6.55;;;0.50;99.90;;;;;;5060314;28;20731;-74
2024/01/11 03:30:56;;;;;;;7.63;7.03;;;0.50;99.90;;;;;;5060202;28;20230;-73
2024/01/11 03:33:25;;;;;;;6.75;6.20;;;0.50;99.90;;;;;;5060479;28;20229;-74
2024/01/11 03:35:52;;;;;;;6.32;5.82;;;0.50;99.90;;;;;;5059007;28;20225;-74
2024/01/11 03:38:19;;;;;;;7.30;6.70;;;0.50;99.90;;;;;;5060946;28;20201;-74
2024/01/11 03:40:46;;;;;;;7.05;6.53;;;0.50;99.90;;;;;;5064239;28;20718;-74
2024/01/11 03:43:13;;;;;;;8.10;7.40;;;0.60;99.90;;;;;;5066552;28;20238;-74
2024/01/11 03:45:40;;;;;;;7.00;6.43;;;0.60;99.90;;;;;;5063998;28;20261;-76
2024/01/11 03:48:07;;;;;;;6.85;6.35;;;0.60;99.90;;;;;;5060987;28;20231;-75
2024/01/11 03:50:36;;;;;;;7.80;7.25;;;0.60;99.90;;;;;;5060385;28;20763;-74
2024/01/11 03:53:04;;;;;;;7.07;6.53;;;0.60;99.90;;;;;;5063446;28;20201;-73
2024/01/11 03:55:31;;;;;;;6.90;6.40;;;0.60;99.90;;;;;;5058475;28;20222;-74
2024/01/11 03:57:58;;;;;;;7.47;6.88;;;0.50;99.90;;;;;;5061331;28;20205;-75
2024/01/11 04:00:25;;;;;;;7.18;6.50;;;0.50;99.90;;;;;;5060162;28;20222;-73
2024/01/11 04:02:52;;;;;;;6.60;6.10;;;0.50;99.90;;;;;;5063693;28;21166;-74
2024/01/11 04:05:19;;;;;;;7.28;6.75;;;0.50;99.90;;;;;;5061971;28;20221;-74
2024/01/11 04:07:48;;;;;;;7.65;7.05;;;0.40;99.90;;;;;;5063683;28;20219;-74
2024/01/11 04:10:16;;;;;;;8.10;7.40;;;0.40;99.90;;;;;;5068630;28;20230;-74
2024/01/11 04:12:43;;;;;;;7.00;6.50;;;0.40;99.90;;;;;;5062795;28;20202;-76
2024/01/11 04:15:13;;;;;;;6.82;6.32;;;0.40;99.90;;;;;;5068861;28;20707;-76
2024/01/11 04:17:41;;;;;;;7.88;7.28;;;0.40;99.90;;;;;;5067254;28;20202;-74
2024/01/11 04:20:09;;;;;;;6.97;6.47;;;0.30;99.90;;;;;;5072696;28;20778;-75
2024/01/11 04:22:36;;;;;;;6.88;6.38;;;0.30;99.90;;;;;;5074412;28;20455;-75
2024/01/11 04:25:05;;;;;;;8.00;7.20;;;0.30;99.90;;;;;;5061757;28;20518;-74
2024/01/11 04:27:32;;;;;;;6.82;6.32;;;0.30;99.90;;;;;;5064137;28;20210;-74
2024/01/11 04:29:59;;;;;;;7.18;6.68;;;0.30;99.90;;;;;;5068131;28;20214;-74
2024/01/11 04:32:26;;;;;;;7.10;6.50;;;0.30;99.90;;;;;;5065460;28;20211;-74
2024/01/11 04:34:53;;;;;;;7.10;6.60;;;0.30;99.90;;;;;;5065731;28;20760;-74
2024/01/11 04:37:20;;;;;;;7.45;6.85;;;0.30;99.90;;;;;;5064117;28;20198;-75
2024/01/11 04:39:47;;;;;;;6.82;6.32;;;0.30;99.90;;;;;;5062893;28;20209;-75
2024/01/11 04:42:16;;;;;;;6.40;6.00;;;0.30;99.90;;;;;;5065322;28;20205;-73
2024/01/11 04:44:43;;;;;;;6.57;6.07;;;0.30;99.90;;;;;;5062991;28;20225;-74
2024/01/11 04:47:10;;;;;;;6.70;6.20;;;0.30;99.90;;;;;;5041565;28;20227;-75
2024/01/11 04:49:37;;;;;;;6.82;6.32;;;0.30;99.90;;;;;;5040717;28;20894;-75
2024/01/11 04:52:05;;;;;;;7.75;7.15;;;0.30;99.90;;;;;;5044441;28;20789;-75
2024/01/11 04:54:31;;;;;;;7.30;6.80;;;0.20;99.90;;;;;;5042007;28;20228;-75
2024/01/11 04:56:58;;;;;;;7.45;6.85;;;0.30;99.90;;;;;;5042779;28;20343;-74
2024/01/11 04:59:26;;;;;;;7.20;6.60;;;0.20;99.90;;;;;;5041568;28;20202;-74
2024/01/11 05:01:53;;;;;;;6.88;6.38;;;0.30;99.90;;;;;;5043377;28;20242;-76
2024/01/11 05:04:20;;;;;;;7.32;6.72;;;0.20;99.90;;;;;;5045824;28;20230;-75
2024/01/11 05:06:47;;;;;;;7.32;6.80;;;0.20;99.90;;;;;;5041336;28;20223;-75
2024/01/11 05:09:15;;;;;;;6.97;6.47;;;0.30;99.90;;;;;;5040227;28;20199;-76
2024/01/11 05:11:42;;;;;;;6.88;6.35;;;0.30;99.90;;;;;;5062379;28;20229;-76
2024/01/11 05:14:09;;;;;;;6.68;6.28;;;0.30;99.90;;;;;;5067097;28;20221;-75
2024/01/11 05:16:39;;;;;;;7.00;6.50;;;0.30;99.90;;;;;;5046951;28;20242;-76
2024/01/11 05:19:06;;;;;;;6.88;6.38;;;0.30;99.90;;;;;;5042960;28;20297;-75
2024/01/11 05:21:33;;;;;;;7.45;6.88;;;0.30;99.90;;;;;;5044657;28;20252;-74
2024/01/11 05:24:00;;;;;;;6.63;6.20;;;0.30;99.90;;;;;;5044042;28;20230;-76
2024/01/11 05:26:27;;;;;;;6.40;6.00;;;0.30;99.90;;;;;;5040941;28;20215;-75
2024/01/11 05:28:54;;;;;;;6.18;5.68;;;0.30;99.90;;;;;;5039823;28;20234;-76
2024/01/11 05:31:22;;;;;;;6.90;6.40;;;0.20;99.90;;;;;;5042149;28;20271;-76
2024/01/11 05:33:50;;;;;;;6.70;6.20;;;0.20;99.90;;;;;;5039348;28;20219;-76
2024/01/11 05:36:17;;;;;;;6.63;6.13;;;0.20;99.90;;;;;;5041390;28;20219;-75
2024/01/11 05:38:46;;;;;;;7.85;7.22;;;0.20;99.90;;;;;;5042653;28;20573;-76
2024/01/11 05:41:13;;;;;;;7.40;6.90;;;0.20;99.90;;;;;;5037249;28;20218;-75
2024/01/11 05:43:42;;;;;;;7.75;7.15;;;0.20;99.90;;;;;;5041405;28;21444;-76
2024/01/11 05:46:09;;;;;;;7.18;6.57;;;0.20;99.90;;;;;;5039658;28;20230;-75
2024/01/11 05:48:36;;;;;;;7.22;6.72;;;0.20;99.90;;;;;;5041933;28;20233;-76
2024/01/11 05:51:05;;;;;;;7.72;7.03;;;0.20;99.90;;;;;;5055759;28;20228;-75
2024/01/11 05:53:35;;;;;;;8.43;7.63;;;0.10;99.90;;;;;;5062700;28;20230;-75
2024/01/11 05:56:02;;;;;;;7.93;7.32;;;0.10;99.90;;;;;;5049257;28;20223;-76
2024/01/11 05:58:30;;;;;;;7.80;7.20;;;0.10;99.90;;;;;;5038132;28;20316;-74
2024/01/11 06:00:57;;;;;;;7.18;6.57;;;0.20;99.90;;;;;;5037841;28;20255;-75
2024/01/11 06:03:24;;;;;;;7.50;6.80;;;0.20;99.90;;;;;;5043421;28;20219;-75
2024/01/11 06:05:51;;;;;;;7.88;7.18;;;0.20;99.90;;;;;;5048940;28;20215;-76
2024/01/11 06:08:20;;;;;;;7.43;6.90;;;0.10;99.90;;;;;;5057069;28;20206;-75
2024/01/11 06:10:47;;;;;;;7.10;6.50;;;0.10;99.90;;;;;;5060650;28;20244;-76
2024/01/11 06:13:14;;;;;;;7.70;7.10;;;0.10;99.90;;;;;;5059581;28;20234;-74
2024/01/11 06:15:42;;;;;;;7.63;7.03;;;0.00;99.90;;;;;;5058074;28;20222;-75
2024/01/11 06:18:09;;;;;;;7.47;6.97;;;0.00;99.90;;;;;;5062716;28;20259;-75
2024/01/11 06:20:36;;;;;;;7.10;6.60;;;0.00;99.90;;;;;;5052565;28;20240;-76
2024/01/11 06:23:03;;;;;;;6.80;6.25;;;0.00;99.90;;;;;;5059371;28;20202;-76
2024/01/11 06:25:32;;;;;;;7.43;6.82;;;0.00;99.90;;;;;;5055320;28;20630;-75
2024/01/11 06:27:59;;;;;;;7.95;7.35;;;0.00;99.90;;;;;;5055219;28;20229;-76
2024/01/11 06:30:26;;;;;;;7.45;6.85;;;-0.10;99.90;;;;;;5057458;28;20545;-76
2024/01/11 06:32:53;;;;;;;7.97;7.38;;;0.00;99.90;;;;;;5059107;28;21166;-75
2024/01/11 06:35:20;;;;;;;7.88;7.28;;;-0.10;99.90;;;;;;5059335;28;20237;-75
2024/01/11 06:37:47;;;;;;;7.50;7.00;;;-0.10;99.90;;;;;;5055104;28;20884;-75
2024/01/11 06:40:14;;;;;;;7.55;6.97;;;-0.10;99.90;;;;;;5058310;28;20223;-75
2024/01/11 06:42:43;;;;;;;7.15;6.60;;;-0.10;99.90;;;;;;5057835;28;20202;-75
2024/01/11 06:45:10;;;;;;;6.72;6.22;;;-0.10;99.90;;;;;;5058921;28;20226;-75
2024/01/11 06:47:37;;;;;;;7.38;6.78;;;-0.10;99.90;;;;;;5060221;28;20277;-75
2024/01/11 06:50:05;;;;;;;7.63;7.03;;;-0.10;99.90;;;;;;5058616;28;20240;-75
2024/01/11 06:52:32;;;;;;;7.15;6.47;;;-0.10;99.90;;;;;;5055782;28;20572;-75
2024/01/11 06:55:00;;;;;;;7.30;6.80;;;-0.10;99.90;;;;;;5062049;28;20218;-75
2024/01/11 06:57:27;;;;;;;7.80;7.10;;;-0.10;99.90;;;;;;5062730;28;20285;-74
2024/01/11 06:59:56;;;;;;;7.35;6.80;;;-0.10;99.90;;;;;;5060307;28;20205;-75
2024/01/11 07:02:23;;;;;;;7.13;6.53;;;0.00;99.90;;;;;;5060662;28;20857;-76
2024/01/11 07:04:50;;;;;;;6.78;6.28;;;0.00;99.90;;;;;;5058286;28;20224;-75
2024/01/11 07:07:17;;;;;;;7.97;7.38;;;-0.10;99.90;;;;;;5059257;28;20214;-76
2024/01/11 07:09:44;;;;;;;6.65;6.15;;;-0.10;99.90;;;;;;5057479;28;20226;-76
2024/01/11 07:12:11;;;;;;;6.90;6.40;;;0.00;99.90;;;;;;5059967;28;20863;-75
2024/01/11 07:14:38;;;;;;;7.07;6.57;;;0.00;99.90;;;;;;5057255;28;20232;-76
2024/01/11 07:17:06;;;;;;;6.90;6.40;;;0.00;99.90;;;;;;5057170;28;20220;-74
2024/01/11 07:19:33;;;;;;;6.50;6.00;;;0.00;99.90;;;;;;5058419;28;20233;-75
2024/01/11 07:22:01;;;;;;;6.95;6.45;;;0.00;99.90;;;;;;5058791;28;20221;-76
2024/01/11 07:24:35;;;;;;;7.32;6.72;;;0.10;99.90;;;;;;5057579;28;20229;-75
2024/01/11 07:27:02;;;;;;;6.97;6.47;;;0.10;99.90;;;;;;5058329;28;20225;-75
2024/01/11 07:29:29;;;;;;;6.78;6.28;;;0.20;99.90;;;;;;5054207;28;20194;-74
2024/01/11 07:31:56;;;;;;;8.45;7.75;;;0.20;99.90;;;;;;5052508;28;20218;-74
2024/01/11 07:34:25;;;;;;;8.80;8.00;;;0.70;99.90;;;;;;5057063;28;20217;-75
2024/01/11 07:36:53;;;;;;;7.65;6.93;;;1.60;99.90;;;;;;5055255;28;20225;-75
2024/01/11 07:39:22;;;;;;;8.07;7.35;;;2.50;99.90;;;;;;5055942;28;20210;-74
2024/01/11 07:41:49;;;;;;;7.53;6.88;;;3.20;99.90;;;;;;5052961;28;20222;-75
2024/01/11 07:44:16;;;;;;;7.63;6.93;;;3.10;99.90;;;;;;5053956;28;20231;-76
2024/01/11 07:46:44;;;;;;;6.70;6.20;;;2.70;99.90;;;;;;5051858;28;20241;-75
2024/01/11 07:49:10;;;;;;;7.93;7.32;;;2.10;99.90;;;;;;5052509;28;20222;-75
2024/01/11 07:51:38;;;;;;;8.10;7.40;;;1.70;99.90;;;;;;5053358;28;20222;-75
2024/01/11 07:54:06;;;;;;;7.70;7.00;;;1.40;99.90;;;;;;5052911;28;20299;-75
2024/01/11 07:56:33;;;;;;;7.78;7.18;;;1.10;99.90;;;;;;5048273;28;20218;-75
2024/01/11 07:59:00;;;;;;;7.65;7.03;;;0.90;99.90;;;;;;5055390;28;20198;-75
2024/01/11 08:01:27;;;;;;;6.90;6.30;;;0.80;99.90;;;;;;5053593;28;20232;-75
2024/01/11 08:03:54;;;;;;;7.03;6.53;;;0.70;99.90;;;;;;5065405;28;20821;-75
2024/01/11 08:06:21;;;;;;;6.95;6.35;;;0.70;99.90;;;;;;5059600;28;20217;-75
2024/01/11 08:08:51;;;;;;;6.40;5.90;;;0.60;99.90;;;;;;5055187;28;20223;-75
2024/01/11 08:11:18;;;;;;;7.25;6.65;;;0.60;99.90;;;;;;5051076;28;20221;-75
2024/01/11 08:13:46;;;;;;;6.95;6.45;;;0.60;99.90;;;;;;5052789;28;20312;-75
2024/01/11 08:16:17;;;;;;;6.50;6.10;;;0.50;99.90;;;;;;5048999;28;20781;-75
2024/01/11 08:18:45;;;;;;;7.30;6.70;;;0.50;99.90;;;;;;5049958;28;20191;-75
2024/01/11 08:21:12;;;;;;;6.65;6.15;;;0.50;99.90;;;;;;5052998;28;20298;-75
2024/01/11 08:23:44;;;;;;;6.85;6.35;;;0.50;99.90;;;;;;5050633;28;20229;-75
2024/01/11 08:26:13;;;;;;;7.20;6.50;;;0.90;99.90;;;;;;5048592;28;20221;-75
2024/01/11 08:28:41;;;;;;;7.75;7.00;;;1.90;99.90;;;;;;5052780;28;20279;-74
2024/01/11 08:31:08;;;;;;;7.03;6.43;;;2.90;99.90;;;;;;5055737;28;20348;-75
2024/01/11 08:33:36;;;;;;;8.20;7.50;;;3.80;99.90;;;;;;5055071;28;20234;-75
2024/01/11 08:36:04;;;;;;;6.70;6.20;;;4.40;99.90;;;;;;5050949;28;20226;-75
2024/01/11 08:38:31;;;;;;;6.93;6.43;;;5.00;99.90;;;;;;5052564;28;20729;-75
2024/01/11 08:40:59;;;;;;;7.32;6.72;;;5.60;99.90;;;;;;5054158;28;20315;-75
2024/01/11 08:43:28;;;;;;;6.15;5.65;;;6.20;99.90;;;;;;5047491;28;20589;-75
2024/01/11 08:45:56;;;;;;;7.10;6.50;;;6.40;99.90;;;;;;5052281;28;20234;-75
2024/01/11 08:48:23;;;;;;;7.22;6.55;;;6.40;99.90;;;;;;5050613;28;20214;-75
2024/01/11 08:50:50;;;;;;;6.80;5.97;;;6.50;99.90;;;;;;5049116;28;20229;-75
2024/01/11 08:53:17;;;;;;;7.32;6.72;;;6.60;99.90;;;;;;5054342;28;20578;-75
2024/01/11 08:55:44;;;;;;;7.07;6.47;;;6.60;99.90;;;;;;5051941;28;20214;-75
2024/01/11 08:58:12;;;;;;;7.38;6.60;;;6.90;99.90;;;;;;5055356;28;20195;-75
2024/01/11 09:00:41;;;;;;;7.97;7.28;;;7.00;99.90;;;;;;5055897;28;20222;-73
2024/01/11 09:03:08;;;;;;;7.50;6.80;;;6.90;99.90;;;;;;5053476;28;20213;-75
2024/01/11 09:05:35;;;;;;;7.10;6.50;;;6.80;99.90;;;;;;5055434;28;20795;-75
2024/01/11 09:08:02;;;;;;;7.40;6.80;;;7.10;99.90;;;;;;5051476;28;20206;-74
2024/01/11 09:10:29;;;;;;;8.00;7.30;;;7.50;99.90;;;;;;5050116;28;20219;-75
2024/01/11 09:12:56;;;;;;;7.35;6.68;;;7.90;99.90;;;;;;5052521;28;20737;-74
2024/01/11 09:15:23;;;;;;;7.57;6.90;;;8.30;99.90;;;;;;5054897;28;20218;-74
2024/01/11 09:17:52;;;;;;;8.40;7.55;;;8.70;99.90;;;;;;5051779;28;20195;-74
2024/01/11 09:20:19;;;;;;;7.32;6.63;;;9.00;99.90;;;;;;5052878;28;20231;-75
2024/01/11 09:22:46;;;;;;;7.22;6.63;;;9.70;99.90;;;;;;5054538;28;20255;-75
2024/01/11 09:25:13;;;;;;;7.50;6.80;;;11.00;99.90;;;;;;5054360;28;20262;-74
2024/01/11 09:27:41;;;;;;;7.07;6.38;;;12.20;99.90;;;;;;5054665;28;20203;-74
2024/01/11 09:30:09;;;;;;;7.28;6.68;;;13.40;99.90;;;;;;5052583;28;20296;-74
2024/01/11 09:32:36;;;;;;;6.18;5.57;;;14.40;99.90;;;;;;5053420;28;20326;-75
2024/01/11 09:35:05;;;;;;;6.72;6.13;;;15.30;99.90;;;;;;5050760;28;20222;-74
2024/01/11 09:37:32;;;;;;;6.82;6.13;;;16.60;99.90;;;;;;5050329;28;20198;-74
2024/01/11 09:40:01;;;;;;;6.00;5.45;;;17.00;99.80;;;;;;5056430;28;20191;-75
2024/01/11 09:42:29;;;;;;;6.05;5.55;;;17.20;97.40;;;;;;5056400;28;20283;-75
2024/01/11 09:44:57;;;;;;;6.40;5.05;;;17.50;95.40;;;;;;5052310;28;20242;-75
2024/01/11 09:47:26;;;;;;;5.97;5.38;;;17.80;94.10;;;;;;5053233;28;20314;-74
2024/01/11 09:49:54;;;;;;;5.22;4.72;;;18.20;91.90;;;;;;5055056;28;20222;-74
2024/01/11 09:52:25;;;;;;;5.32;4.85;;;18.40;90.80;;;;;;5053066;28;20937;-74
2024/01/11 09:54:52;;;;;;;5.85;5.35;;;18.50;88.70;;;;;;5056844;28;20753;-74
2024/01/11 09:57:29;;;;;;;6.22;5.63;;;18.30;89.50;;;;;;5066889;28;20198;-73
2024/01/11 09:59:57;;;;;;;6.55;5.47;;;17.80;88.00;;;;;;5052958;28;20190;-74
2024/01/11 10:02:26;;;;;;;7.22;5.70;;;17.20;90.10;;;;;;5051551;28;20206;-74
2024/01/11 10:04:53;;;;;;;6.45;5.85;;;16.50;90.30;;;;;;5050861;28;20214;-73
2024/01/11 10:07:24;;;;;;;6.35;5.75;;;15.30;92.30;;;;;;5052910;28;20190;-74
2024/01/11 10:09:52;;;;;;;6.38;5.78;;;13.90;94.60;;;;;;5053700;28;20264;-74
2024/01/11 10:12:23;;;;;;;6.10;5.50;;;12.70;96.60;;;;;;5055640;28;20199;-74
2024/01/11 10:14:51;;;;;;;7.95;5.95;;;11.90;99.70;;;;;;5051245;28;20818;-73
2024/01/11 10:17:19;;;;;;;6.30;5.63;;;11.50;99.90;;;;;;5048135;28;20659;-74
2024/01/11 10:19:46;;;;;;;6.50;5.90;;;11.10;99.90;;;;;;5049385;28;20202;-74
2024/01/11 10:22:16;;;;;;;6.82;6.13;;;10.80;99.90;;;;;;5050581;28;20551;-74
2024/01/11 10:24:45;;;;;;;6.95;6.28;;;10.60;99.90;;;;;;5052047;28;20700;-76
2024/01/11 10:27:12;;;;;;;6.97;5.60;;;10.30;99.90;;;;;;5055399;28;20228;-75
2024/01/11 10:29:39;;;;;;;6.70;6.07;;;10.00;99.90;;;;;;5053730;28;20223;-75
2024/01/11 10:32:07;;;;;;;6.38;5.78;;;9.90;99.90;;;;;;5052873;28;20755;-75
2024/01/11 10:34:34;;;;;;;5.93;5.32;;;9.90;99.90;;;;;;5053346;28;20775;-75
2024/01/11 10:37:01;;;;;;;5.63;5.20;;;9.70;99.90;;;;;;5055457;28;20229;-75
2024/01/11 10:39:29;;;;;;;6.47;5.88;;;9.80;99.90;;;;;;5051885;28;20182;-75
2024/01/11 10:42:07;;;;;;;6.55;5.95;;;9.80;99.90;;;;;;5054530;28;20275;-75
2024/01/11 10:44:35;;;;;;;6.90;6.30;;;9.40;99.90;;;;;;5054280;28;20234;-74
2024/01/11 10:47:05;;;;;;;8.68;6.15;;;8.90;99.90;;;;;;5052668;28;20337;-75
2024/01/11 10:49:34;;;;;;;7.07;6.38;;;8.60;99.90;;;;;;5050083;28;20228;-76
2024/01/11 10:52:04;;;;;;;6.57;5.97;;;8.50;99.90;;;;;;5053251;28;20304;-73
2024/01/11 10:54:31;;;;;;;5.78;5.28;;;8.60;99.90;;;;;;5053810;28;20774;-74
2024/01/11 10:57:00;;;;;;;6.25;5.75;;;8.60;99.90;;;;;;5052489;28;20223;-76
2024/01/11 10:59:28;;;;;;;6.68;6.10;;;8.60;99.90;;;;;;5050523;28;20285;-76
2024/01/11 11:01:56;;;;;;;8.55;5.55;;;8.50;99.90;;;;;;5049338;28;20973;-76
2024/01/11 11:04:24;;;;;;;6.40;5.80;;;8.40;99.90;;;;;;5051238;28;20699;-74
2024/01/11 11:06:51;;;;;;;9.55;6.22;;;8.40;99.90;;;;;;5051777;28;20233;-75
2024/01/11 11:09:19;;;;;;;6.85;6.25;;;8.40;99.90;;;;;;5048052;28;20776;-75
2024/01/11 11:11:47;;;;;;;5.95;5.45;;;8.50;99.90;;;;;;5044905;28;20226;-75
2024/01/11 11:14:17;;;;;;;6.60;5.93;;;8.70;99.90;;;;;;5045765;28;20711;-76
2024/01/11 11:16:46;;;;;;;5.90;5.40;;;8.70;99.90;;;;;;5046479;28;20768;-75
2024/01/11 11:19:13;;;;;;;6.13;5.63;;;8.70;99.90;;;;;;5051752;28;20213;-76
2024/01/11 11:21:44;;;;;;;6.50;5.90;;;8.50;99.90;;;;;;5054701;28;20227;-75
2024/01/11 11:24:11;;;;;;;6.80;5.95;;;8.70;99.90;;;;;;5054135;28;20225;-76
2024/01/11 11:26:38;;;;;;;6.78;6.07;;;8.60;99.90;;;;;;5050647;28;20222;-76
2024/01/11 11:29:06;;;;;;;6.40;5.80;;;8.70;99.90;;;;;;5055121;28;20218;-74
2024/01/11 11:31:38;;;;;;;6.35;5.80;;;9.00;99.90;;;;;;5055111;28;20960;-74
2024/01/11 11:34:06;;;;;;;6.40;5.68;;;9.30;99.90;;;;;;5053006;28;20218;-75
2024/01/11 11:36:35;;;;;;;6.35;5.57;;;9.50;99.90;;;;;;5052550;28;20809;-74
2024/01/11 11:39:02;;;;;;;6.18;5.68;;;9.80;99.90;;;;;;5051572;28;20225;-76
2024/01/11 11:41:31;;;;;;;5.88;5.38;;;10.00;99.90;;;;;;5051080;28;20867;-74
2024/01/11 11:44:02;;;;;;;5.65;5.15;;;10.20;99.90;;;;;;5047851;28;20922;-75
2024/01/11 11:46:30;;;;;;;7.97;5.57;;;10.10;99.90;;;;;;5048322;28;20989;-74
2024/01/11 11:48:59;;;;;;;5.88;5.28;;;9.90;99.90;;;;;;5048900;28;20226;-75
2024/01/11 11:51:27;;;;;;;6.43;5.82;;;9.50;99.90;;;;;;5052659;28;20583;-75
2024/01/11 11:53:54;;;;;;;5.63;5.13;;;9.40;99.90;;;;;;5053836;28;20229;-75
2024/01/11 11:56:23;;;;;;;6.13;5.63;;;9.10;99.90;;;;;;5050343;28;20226;-74
2024/01/11 11:58:52;;;;;;;5.68;5.13;;;9.10;99.90;;;;;;5053747;28;20797;-75
2024/01/11 12:01:19;;;;;;;6.10;5.43;;;9.20;99.90;;;;;;5052645;28;20770;-75
2024/01/11 12:03:50;;;;;;;8.45;5.72;;;9.80;99.90;;;;;;5058405;28;20222;-75
2024/01/11 12:06:20;;;;;;;6.50;5.38;;;10.40;99.90;;;;;;5052145;28;20252;-75
2024/01/11 12:08:48;;;;;;;5.70;5.20;;;10.90;99.90;;;;;;5053962;28;20733;-75
2024/01/11 12:11:17;;;;;;;5.93;5.32;;;10.80;99.90;;;;;;5053211;28;20222;-76
2024/01/11 12:13:44;;;;;;;5.72;5.22;;;10.50;99.90;;;;;;5053593;28;20256;-76
2024/01/11 12:16:12;;;;;;;5.70;5.20;;;10.00;99.90;;;;;;5053830;28;20218;-74
2024/01/11 12:18:39;;;;;;;6.20;5.60;;;9.80;99.90;;;;;;5055533;28;20302;-75
2024/01/11 12:21:07;;;;;;;6.95;5.43;;;9.60;99.90;;;;;;5053341;28;20331;-75
2024/01/11 12:23:39;;;;;;;6.93;6.05;;;9.40;99.90;;;;;;5050384;28;20232;-75
2024/01/11 12:26:12;;;;;;;5.97;5.35;;;9.30;99.90;;;;;;5053363;28;20219;-75
2024/01/11 12:28:40;;;;;;;5.80;5.30;;;9.30;99.90;;;;;;5058544;28;20207;-74
2024/01/11 12:31:07;;;;;;;5.90;5.03;;;9.40;99.90;;;;;;5058156;28;20230;-75
2024/01/11 12:33:35;;;;;;;5.15;4.75;;;9.40;99.90;;;;;;5054646;28;20732;-74
2024/01/11 12:36:02;;;;;;;5.82;5.22;;;9.20;99.90;;;;;;5056602;28;20225;-75
2024/01/11 12:38:29;;;;;;;6.40;5.80;;;9.10;99.90;;;;;;5059128;28;20213;-74
2024/01/11 12:40:58;;;;;;;6.35;5.75;;;9.20;99.90;;;;;;5058993;28;20232;-74
2024/01/11 12:43:25;;;;;;;6.13;5.60;;;9.20;99.90;;;;;;5058680;28;20304;-75
2024/01/11 12:45:53;;;;;;;6.88;6.18;;;9.20;99.90;;;;;;5057541;28;20779;-74
2024/01/11 12:48:21;;;;;;;6.40;5.80;;;9.30;99.90;;;;;;5058097;28;21812;-74
2024/01/11 12:50:48;;;;;;;5.88;5.38;;;9.50;99.90;;;;;;5055591;28;20226;-74
2024/01/11 12:53:18;;;;;;;6.97;6.35;;;9.60;99.90;;;;;;5054460;28;20206;-75
2024/01/11 12:55:46;;;;;;;6.38;5.80;;;9.50;99.90;;;;;;5053029;28;20759;-74
2024/01/11 12:58:19;;;;;;;6.55;5.95;;;9.20;99.90;;;;;;5056566;28;20647;-75